Terminal Aerodrome Forecast
Issued by NWS

Home | Current Version | Previous Version | Text Only | Print | Product List | Glossary On
Versions: 1 2 3 4 5 6 7 8 9 10 11 12 13
000
FTUS45 KABQ 272334
TAFROW
TAF
KROW 272334Z 2800/2824 18012KT P6SM FEW090 SCT150
     FM280100 18009KT P6SM VCSH BKN090
     FM280400 20006KT P6SM SCT140
     FM281700 15010KT P6SM FEW090 SCT150=

USA.gov is the U.S. government's official web portal to all federal, state and local government web resources and services.